createdAt,value
2022-11-27T00:00:12.024Z,1013.98
2022-11-27T00:01:12.003Z,1013.99
2022-11-27T00:02:12.053Z,1013.97
2022-11-27T00:03:12.137Z,1013.93
2022-11-27T00:04:12.083Z,1013.87
2022-11-27T00:05:11.937Z,1013.85
2022-11-27T00:06:11.910Z,1013.85
2022-11-27T00:07:11.953Z,1013.81
2022-11-27T00:08:11.873Z,1013.74
2022-11-27T00:09:11.869Z,1013.81
2022-11-27T00:10:11.878Z,1013.77
2022-11-27T00:11:11.816Z,1013.74
2022-11-27T00:12:11.799Z,1013.77
2022-11-27T00:13:11.782Z,1013.75
2022-11-27T00:14:11.811Z,1013.74
2022-11-27T00:15:16.994Z,1013.71
2022-11-27T00:16:11.758Z,1013.71
2022-11-27T00:17:11.700Z,1013.75
2022-11-27T00:18:11.677Z,1013.71
2022-11-27T00:19:11.669Z,1013.77
2022-11-27T00:20:11.679Z,1013.75
2022-11-27T00:21:11.625Z,1013.75
2022-11-27T00:22:11.601Z,1013.73
2022-11-27T00:23:11.611Z,1013.75
2022-11-27T00:24:11.570Z,1013.69
2022-11-27T00:25:11.554Z,1013.69
2022-11-27T00:26:11.525Z,1013.65
2022-11-27T00:27:11.508Z,1013.65
2022-11-27T00:28:11.485Z,1013.69
2022-11-27T00:29:11.469Z,1013.68
2022-11-27T00:30:11.451Z,1013.69
2022-11-27T00:31:11.470Z,1013.66
2022-11-27T00:32:11.418Z,1013.67
2022-11-27T00:33:11.392Z,1013.62
2022-11-27T00:34:11.372Z,1013.62
2022-11-27T00:35:11.366Z,1013.59
2022-11-27T00:36:11.332Z,1013.60
2022-11-27T00:37:11.330Z,1013.63
2022-11-27T00:38:11.301Z,1013.61
2022-11-27T00:39:11.279Z,1013.60
2022-11-27T00:40:11.314Z,1013.58
2022-11-27T00:41:11.239Z,1013.60
2022-11-27T00:42:11.222Z,1013.58
2022-11-27T00:43:11.206Z,1013.58
2022-11-27T00:44:11.183Z,1013.58
2022-11-27T00:45:11.167Z,1013.56
2022-11-27T00:46:11.211Z,1013.58
2022-11-27T00:47:11.123Z,1013.60
2022-11-27T00:48:11.119Z,1013.57
2022-11-27T00:49:11.085Z,1013.57
2022-11-27T00:50:11.071Z,1013.54
2022-11-27T00:51:11.074Z,1013.52
2022-11-27T00:52:11.027Z,1013.50
2022-11-27T00:53:11.008Z,1013.53
2022-11-27T00:54:10.991Z,1013.56
2022-11-27T00:55:10.979Z,1013.58
2022-11-27T00:56:10.947Z,1013.63
2022-11-27T00:57:10.938Z,1013.66
2022-11-27T00:58:10.906Z,1013.65
2022-11-27T00:59:10.897Z,1013.63
2022-11-27T01:00:10.876Z,1013.66
2022-11-27T01:01:10.856Z,1013.65
2022-11-27T01:02:10.878Z,1013.60
2022-11-27T01:03:10.852Z,1013.56
2022-11-27T01:04:10.818Z,1013.54
2022-11-27T01:05:10.776Z,1013.51
2022-11-27T01:06:10.752Z,1013.49
2022-11-27T01:07:10.805Z,1013.49
2022-11-27T01:08:10.716Z,1013.49
2022-11-27T01:09:10.762Z,1013.49
2022-11-27T01:10:10.683Z,1013.51
2022-11-27T01:11:10.662Z,1013.48
2022-11-27T01:12:10.640Z,1013.48
2022-11-27T01:13:10.625Z,1013.46
2022-11-27T01:14:10.609Z,1013.41
2022-11-27T01:15:10.589Z,1013.44
2022-11-27T01:16:10.670Z,1013.46
2022-11-27T01:17:10.545Z,1013.43
2022-11-27T01:18:10.534Z,1013.43
2022-11-27T01:19:10.512Z,1013.38
2022-11-27T01:20:10.513Z,1013.38
2022-11-27T01:21:10.500Z,1013.34
2022-11-27T01:22:10.456Z,1013.34
2022-11-27T01:23:10.429Z,1013.36
2022-11-27T01:24:10.406Z,1013.32
2022-11-27T01:25:10.432Z,1013.33
2022-11-27T01:26:10.379Z,1013.28
2022-11-27T01:27:10.352Z,1013.28
2022-11-27T01:28:10.375Z,1013.27
2022-11-27T01:29:10.335Z,1013.28
2022-11-27T01:30:10.294Z,1013.33
2022-11-27T01:31:10.319Z,1013.29
2022-11-27T01:32:10.252Z,1013.29
2022-11-27T01:33:10.237Z,1013.33
2022-11-27T01:34:10.232Z,1013.30
2022-11-27T01:35:10.198Z,1013.35
2022-11-27T01:36:10.177Z,1013.36
2022-11-27T01:37:10.157Z,1013.36
2022-11-27T01:38:10.135Z,1013.38
2022-11-27T01:39:10.145Z,1013.37
2022-11-27T01:40:10.104Z,1013.41
2022-11-27T01:41:10.132Z,1013.43
2022-11-27T01:42:10.068Z,1013.40
2022-11-27T01:43:10.040Z,1013.38
2022-11-27T01:44:10.028Z,1013.38
2022-11-27T01:45:10.024Z,1013.30
2022-11-27T01:46:10.044Z,1013.32
2022-11-27T01:47:09.990Z,1013.35
2022-11-27T01:48:09.945Z,1013.33
2022-11-27T01:49:09.931Z,1013.33
2022-11-27T01:50:09.911Z,1013.32
2022-11-27T01:51:09.892Z,1013.32
2022-11-27T01:52:09.941Z,1013.35
2022-11-27T01:53:09.844Z,1013.35
2022-11-27T01:54:09.841Z,1013.37
2022-11-27T01:55:09.808Z,1013.29
2022-11-27T01:56:09.792Z,1013.30
2022-11-27T01:57:09.771Z,1013.31
2022-11-27T01:58:09.812Z,1013.31
2022-11-27T01:59:09.733Z,1013.26
2022-11-27T02:00:09.708Z,1013.24
2022-11-27T02:01:09.695Z,1013.17
2022-11-27T02:02:09.696Z,1013.21
2022-11-27T02:03:09.814Z,1013.11
2022-11-27T02:04:09.632Z,1013.07
2022-11-27T02:05:09.622Z,1013.07
2022-11-27T02:06:09.591Z,1013.06
2022-11-27T02:07:09.681Z,1013.05
2022-11-27T02:08:09.592Z,1013.06
2022-11-27T02:09:09.536Z,1013.07
2022-11-27T02:10:09.519Z,1013.01
2022-11-27T02:11:09.497Z,1013.02
2022-11-27T02:12:09.473Z,1013.04
2022-11-27T02:13:09.504Z,1013.00
2022-11-27T02:14:09.467Z,1013.00
2022-11-27T02:15:09.425Z,1012.94
2022-11-27T02:16:11.762Z,1012.90
2022-11-27T02:17:09.382Z,1012.85
2022-11-27T02:18:09.383Z,1012.83
2022-11-27T02:19:09.341Z,1012.82
2022-11-27T02:20:09.315Z,1012.78
2022-11-27T02:21:09.305Z,1012.72
2022-11-27T02:22:09.279Z,1012.71
2022-11-27T02:23:09.317Z,1012.69
2022-11-27T02:24:09.242Z,1012.71
2022-11-27T02:25:09.220Z,1012.68
2022-11-27T02:26:09.201Z,1012.69
2022-11-27T02:27:09.184Z,1012.72
2022-11-27T02:28:09.165Z,1012.70
2022-11-27T02:29:09.159Z,1012.65
2022-11-27T02:30:09.121Z,1012.64
2022-11-27T02:31:09.201Z,1012.62
2022-11-27T02:32:09.105Z,1012.60
2022-11-27T02:33:09.063Z,1012.62
2022-11-27T02:34:09.050Z,1012.58
2022-11-27T02:35:09.031Z,1012.54
2022-11-27T02:36:09.008Z,1012.57
2022-11-27T02:37:08.997Z,1012.64
2022-11-27T02:38:08.967Z,1012.56
2022-11-27T02:39:08.974Z,1012.57
2022-11-27T02:40:08.926Z,1012.55
2022-11-27T02:41:08.932Z,1012.58
2022-11-27T02:42:08.964Z,1012.57
2022-11-27T02:43:08.870Z,1012.55
2022-11-27T02:44:08.845Z,1012.47
2022-11-27T02:45:08.855Z,1012.48
2022-11-27T02:46:08.867Z,1012.48
2022-11-27T02:47:08.793Z,1012.41
2022-11-27T02:48:08.770Z,1012.46
2022-11-27T02:49:08.752Z,1012.45
2022-11-27T02:50:08.770Z,1012.46
2022-11-27T02:51:08.711Z,1012.44
2022-11-27T02:52:08.714Z,1012.51
2022-11-27T02:53:08.669Z,1012.47
2022-11-27T02:54:08.666Z,1012.44
2022-11-27T02:55:08.638Z,1012.41
2022-11-27T02:56:08.611Z,1012.41
2022-11-27T02:57:08.635Z,1012.47
2022-11-27T02:58:08.656Z,1012.46
2022-11-27T02:59:08.552Z,1012.48
2022-11-27T03:00:08.535Z,1012.44
2022-11-27T03:01:08.511Z,1012.48
2022-11-27T03:02:08.605Z,1012.45
2022-11-27T03:03:08.563Z,1012.41
2022-11-27T03:04:08.454Z,1012.47
2022-11-27T03:05:08.433Z,1012.40
2022-11-27T03:06:08.414Z,1012.45
2022-11-27T03:07:08.395Z,1012.47
2022-11-27T03:08:08.395Z,1012.49
2022-11-27T03:09:08.363Z,1012.47
2022-11-27T03:10:08.333Z,1012.44
2022-11-27T03:11:08.309Z,1012.50
2022-11-27T03:12:08.336Z,1012.52
2022-11-27T03:13:08.286Z,1012.52
2022-11-27T03:14:08.333Z,1012.49
2022-11-27T03:15:08.289Z,1012.48
2022-11-27T03:16:08.341Z,1012.51
2022-11-27T03:17:08.193Z,1012.54
2022-11-27T03:18:08.183Z,1012.54
2022-11-27T03:19:08.156Z,1012.55
2022-11-27T03:20:08.136Z,1012.50
2022-11-27T03:21:08.148Z,1012.51
2022-11-27T03:22:08.094Z,1012.45
2022-11-27T03:23:08.074Z,1012.45
2022-11-27T03:24:08.082Z,1012.39
2022-11-27T03:25:08.060Z,1012.35
2022-11-27T03:26:08.017Z,1012.32
2022-11-27T03:27:07.993Z,1012.30
2022-11-27T03:28:07.975Z,1012.28
2022-11-27T03:29:07.964Z,1012.28
2022-11-27T03:30:08.013Z,1012.28
2022-11-27T03:31:07.936Z,1012.25
2022-11-27T03:32:07.897Z,1012.26
2022-11-27T03:33:07.875Z,1012.21
2022-11-27T03:34:07.855Z,1012.20
2022-11-27T03:35:07.847Z,1012.23
2022-11-27T03:36:07.817Z,1012.18
2022-11-27T03:37:07.824Z,1012.16
2022-11-27T03:38:07.792Z,1012.16
2022-11-27T03:39:07.762Z,1012.12
2022-11-27T03:40:07.800Z,1012.15
2022-11-27T03:41:07.713Z,1012.16
2022-11-27T03:42:07.701Z,1012.14
2022-11-27T03:43:07.680Z,1012.12
2022-11-27T03:44:07.657Z,1012.14
2022-11-27T03:45:07.645Z,1012.13
2022-11-27T03:46:07.734Z,1012.15
2022-11-27T03:47:07.619Z,1012.13
2022-11-27T03:48:07.581Z,1012.10
2022-11-27T03:49:07.555Z,1012.01
2022-11-27T03:50:07.556Z,1011.95
2022-11-27T03:51:07.541Z,1011.93
2022-11-27T03:52:07.496Z,1011.86
2022-11-27T03:53:07.481Z,1011.86
2022-11-27T03:54:07.497Z,1011.86
2022-11-27T03:55:07.436Z,1011.91
2022-11-27T03:56:10.222Z,1011.86
2022-11-27T03:57:07.406Z,1011.86
2022-11-27T03:58:07.407Z,1011.87
2022-11-27T03:59:07.356Z,1011.84
2022-11-27T04:00:07.361Z,1011.84
2022-11-27T04:01:07.317Z,1011.91
2022-11-27T04:02:07.433Z,1011.91
2022-11-27T04:03:07.314Z,1011.86
2022-11-27T04:04:07.335Z,1011.86
2022-11-27T04:05:07.235Z,1011.88
2022-11-27T04:06:07.212Z,1011.92
2022-11-27T04:07:07.214Z,1011.90
2022-11-27T04:08:07.174Z,1011.92
2022-11-27T04:09:07.208Z,1011.91
2022-11-27T04:10:07.133Z,1011.99
2022-11-27T04:11:07.124Z,1012.03
2022-11-27T04:12:07.092Z,1012.02
2022-11-27T04:13:07.075Z,1012.06
2022-11-27T04:14:07.057Z,1012.02
2022-11-27T04:15:07.040Z,1011.99
2022-11-27T04:16:07.099Z,1011.92
2022-11-27T04:17:06.996Z,1011.92
2022-11-27T04:18:07.052Z,1011.88
2022-11-27T04:19:06.957Z,1011.87
2022-11-27T04:20:06.978Z,1011.83
2022-11-27T04:21:06.915Z,1011.91
2022-11-27T04:22:06.919Z,1011.83
2022-11-27T04:23:06.874Z,1011.84
2022-11-27T04:24:06.853Z,1011.81
2022-11-27T04:25:06.836Z,1011.81
2022-11-27T04:26:06.840Z,1011.82
2022-11-27T04:27:06.793Z,1011.84
2022-11-27T04:28:06.773Z,1011.87
2022-11-27T04:29:06.751Z,1011.88
2022-11-27T04:30:06.734Z,1011.83
2022-11-27T04:31:06.787Z,1011.88
2022-11-27T04:32:06.690Z,1011.83
2022-11-27T04:33:06.673Z,1011.83
2022-11-27T04:34:06.734Z,1011.84
2022-11-27T04:35:06.631Z,1011.78
2022-11-27T04:36:06.656Z,1011.77
2022-11-27T04:37:06.598Z,1011.81
2022-11-27T04:38:06.572Z,1011.81
2022-11-27T04:39:06.560Z,1011.79
2022-11-27T04:40:06.531Z,1011.80
2022-11-27T04:41:06.518Z,1011.81
2022-11-27T04:42:06.492Z,1011.82
2022-11-27T04:43:06.470Z,1011.82
2022-11-27T04:44:06.446Z,1011.81
2022-11-27T04:45:06.431Z,1011.87
2022-11-27T04:46:06.474Z,1011.81
2022-11-27T04:47:06.463Z,1011.85
2022-11-27T04:48:06.427Z,1011.80
2022-11-27T04:49:06.348Z,1011.77
2022-11-27T04:50:06.402Z,1011.74
2022-11-27T04:51:06.314Z,1011.72
2022-11-27T04:52:06.326Z,1011.73
2022-11-27T04:53:06.271Z,1011.66
2022-11-27T04:54:06.246Z,1011.66
2022-11-27T04:55:06.227Z,1011.63
2022-11-27T04:56:06.210Z,1011.60
2022-11-27T04:57:06.248Z,1011.60
2022-11-27T04:58:06.167Z,1011.58
2022-11-27T04:59:06.183Z,1011.53
2022-11-27T05:00:06.167Z,1011.54
2022-11-27T05:01:06.139Z,1011.57
2022-11-27T05:02:06.089Z,1011.52
2022-11-27T05:03:06.178Z,1011.45
2022-11-27T05:04:06.045Z,1011.46
2022-11-27T05:05:06.027Z,1011.43
2022-11-27T05:06:11.621Z,1011.35
2022-11-27T05:07:06.132Z,1011.35
2022-11-27T05:08:05.967Z,1011.34
2022-11-27T05:09:05.952Z,1011.35
2022-11-27T05:10:05.923Z,1011.34
2022-11-27T05:11:05.909Z,1011.29
2022-11-27T05:12:05.884Z,1011.34
2022-11-27T05:13:05.868Z,1011.35
2022-11-27T05:14:05.898Z,1011.35
2022-11-27T05:15:05.824Z,1011.35
2022-11-27T05:16:05.841Z,1011.33
2022-11-27T05:17:05.786Z,1011.34
2022-11-27T05:18:05.761Z,1011.39
2022-11-27T05:19:05.743Z,1011.35
2022-11-27T05:20:05.745Z,1011.34
2022-11-27T05:21:05.700Z,1011.32
2022-11-27T05:22:05.678Z,1011.33
2022-11-27T05:23:05.737Z,1011.31
2022-11-27T05:24:05.641Z,1011.32
2022-11-27T05:25:05.659Z,1011.28
2022-11-27T05:26:05.598Z,1011.29
2022-11-27T05:27:05.585Z,1011.24
2022-11-27T05:28:05.568Z,1011.28
2022-11-27T05:29:05.556Z,1011.27
2022-11-27T05:30:05.522Z,1011.31
2022-11-27T05:31:05.580Z,1011.27
2022-11-27T05:32:05.478Z,1011.25
2022-11-27T05:33:05.456Z,1011.22
2022-11-27T05:34:05.434Z,1011.21
2022-11-27T05:35:05.429Z,1011.18
2022-11-27T05:36:05.433Z,1011.20
2022-11-27T05:37:05.376Z,1011.16
2022-11-27T05:38:05.357Z,1011.15
2022-11-27T05:39:05.411Z,1011.18
2022-11-27T05:40:05.321Z,1011.10
2022-11-27T05:41:05.322Z,1011.11
2022-11-27T05:42:05.273Z,1011.15
2022-11-27T05:43:05.256Z,1011.11
2022-11-27T05:44:05.242Z,1011.11
2022-11-27T05:45:05.269Z,1011.10
2022-11-27T05:46:05.197Z,1011.11
2022-11-27T05:47:05.208Z,1011.09
2022-11-27T05:48:05.158Z,1011.09
2022-11-27T05:49:05.143Z,1011.07
2022-11-27T05:50:05.122Z,1011.08
2022-11-27T05:51:05.127Z,1011.07
2022-11-27T05:52:05.070Z,1011.02
2022-11-27T05:53:05.052Z,1011.01
2022-11-27T05:54:05.032Z,1011.02
2022-11-27T05:55:05.087Z,1010.99
2022-11-27T05:56:04.990Z,1011.00
2022-11-27T05:57:05.015Z,1011.00
2022-11-27T05:58:04.947Z,1011.02
2022-11-27T05:59:04.930Z,1011.02
2022-11-27T06:00:04.915Z,1010.96
2022-11-27T06:01:04.887Z,1010.99
2022-11-27T06:02:04.964Z,1010.96
2022-11-27T06:03:05.009Z,1010.97
2022-11-27T06:04:04.829Z,1010.98
2022-11-27T06:05:04.810Z,1010.99
2022-11-27T06:06:04.791Z,1010.96
2022-11-27T06:07:04.768Z,1010.95
2022-11-27T06:08:04.746Z,1010.98
2022-11-27T06:09:09.327Z,1010.99
2022-11-27T06:10:04.703Z,1010.96
2022-11-27T06:11:04.765Z,1010.94
2022-11-27T06:12:04.674Z,1010.97
2022-11-27T06:13:04.645Z,1011.00
2022-11-27T06:14:04.622Z,1010.92
2022-11-27T06:15:04.651Z,1010.88
2022-11-27T06:16:04.627Z,1010.88
2022-11-27T06:17:04.562Z,1010.82
2022-11-27T06:18:04.539Z,1010.77
2022-11-27T06:19:04.521Z,1010.69
2022-11-27T06:20:04.548Z,1010.70
2022-11-27T06:21:04.484Z,1010.66
2022-11-27T06:22:04.496Z,1010.72
2022-11-27T06:23:04.442Z,1010.76
2022-11-27T06:24:04.429Z,1010.72
2022-11-27T06:25:04.404Z,1010.73
2022-11-27T06:26:04.403Z,1010.77
2022-11-27T06:27:04.441Z,1010.76
2022-11-27T06:28:04.339Z,1010.75
2022-11-27T06:29:04.319Z,1010.68
2022-11-27T06:30:04.295Z,1010.67
2022-11-27T06:31:04.369Z,1010.66
2022-11-27T06:32:04.313Z,1010.66
2022-11-27T06:33:04.238Z,1010.69
2022-11-27T06:34:04.228Z,1010.66
2022-11-27T06:35:04.200Z,1010.67
2022-11-27T06:36:04.175Z,1010.63
2022-11-27T06:37:05.400Z,1010.66
2022-11-27T06:38:04.162Z,1010.64
2022-11-27T06:39:04.120Z,1010.62
2022-11-27T06:40:04.090Z,1010.63
2022-11-27T06:41:04.077Z,1010.62
2022-11-27T06:42:04.054Z,1010.60
2022-11-27T06:43:04.158Z,1010.60
2022-11-27T06:44:04.016Z,1010.60
2022-11-27T06:45:03.997Z,1010.62
2022-11-27T06:46:04.090Z,1010.58
2022-11-27T06:47:03.954Z,1010.62
2022-11-27T06:48:03.929Z,1010.56
2022-11-27T06:49:03.912Z,1010.59
2022-11-27T06:50:03.896Z,1010.61
2022-11-27T06:51:03.871Z,1010.62
2022-11-27T06:52:03.849Z,1010.64
2022-11-27T06:53:03.836Z,1010.66
2022-11-27T06:54:03.837Z,1010.65
2022-11-27T06:55:03.788Z,1010.63
2022-11-27T06:56:03.764Z,1010.65
2022-11-27T06:57:03.754Z,1010.62
2022-11-27T06:58:03.759Z,1010.66
2022-11-27T06:59:03.782Z,1010.67
2022-11-27T07:00:03.709Z,1010.68
2022-11-27T07:01:03.695Z,1010.61
2022-11-27T07:02:03.700Z,1010.62
2022-11-27T07:03:03.634Z,1010.61
2022-11-27T07:04:03.604Z,1010.65
2022-11-27T07:05:03.632Z,1010.62
2022-11-27T07:06:03.567Z,1010.61
2022-11-27T07:07:03.545Z,1010.61
2022-11-27T07:08:03.574Z,1010.58
2022-11-27T07:09:03.508Z,1010.60
2022-11-27T07:10:03.505Z,1010.58
2022-11-27T07:11:03.462Z,1010.57
2022-11-27T07:12:03.439Z,1010.57
2022-11-27T07:13:03.449Z,1010.56
2022-11-27T07:14:03.417Z,1010.58
2022-11-27T07:15:04.569Z,1010.55
2022-11-27T07:16:03.376Z,1010.56
2022-11-27T07:17:03.339Z,1010.57
2022-11-27T07:18:03.348Z,1010.57
2022-11-27T07:19:03.297Z,1010.54
2022-11-27T07:20:03.284Z,1010.54
2022-11-27T07:21:03.255Z,1010.50
2022-11-27T07:22:03.291Z,1010.47
2022-11-27T07:23:03.214Z,1010.48
2022-11-27T07:24:03.197Z,1010.41
2022-11-27T07:25:03.178Z,1010.43
2022-11-27T07:26:03.160Z,1010.34
2022-11-27T07:27:03.133Z,1010.35
2022-11-27T07:28:03.142Z,1010.36
2022-11-27T07:29:03.095Z,1010.39
2022-11-27T07:30:03.117Z,1010.41
2022-11-27T07:31:03.138Z,1010.36
2022-11-27T07:32:03.071Z,1010.36
2022-11-27T07:33:03.014Z,1010.35
2022-11-27T07:34:05.700Z,1010.38
2022-11-27T07:35:02.994Z,1010.35
2022-11-27T07:36:02.968Z,1010.39
2022-11-27T07:37:02.928Z,1010.34
2022-11-27T07:38:02.908Z,1010.38
2022-11-27T07:39:02.893Z,1010.32
2022-11-27T07:40:03.673Z,1010.36
2022-11-27T07:41:02.863Z,1010.36
2022-11-27T07:42:16.775Z,1010.37
2022-11-27T07:43:02.809Z,1010.36
2022-11-27T07:44:02.784Z,1010.38
2022-11-27T07:45:02.762Z,1010.38
2022-11-27T07:46:02.812Z,1010.37
2022-11-27T07:47:02.803Z,1010.32
2022-11-27T07:48:02.707Z,1010.37
2022-11-27T07:49:02.762Z,1010.31
2022-11-27T07:50:02.712Z,1010.38
2022-11-27T07:51:02.653Z,1010.38
2022-11-27T07:52:02.622Z,1010.37
2022-11-27T07:53:02.601Z,1010.40
2022-11-27T07:54:02.583Z,1010.36
2022-11-27T07:55:02.586Z,1010.35
2022-11-27T07:56:02.552Z,1010.42
2022-11-27T07:57:02.532Z,1010.37
2022-11-27T07:58:02.552Z,1010.38
2022-11-27T07:59:02.482Z,1010.38
2022-11-27T08:00:02.463Z,1010.42
2022-11-27T08:01:02.519Z,1010.41
2022-11-27T08:02:02.420Z,1010.40
2022-11-27T08:03:02.485Z,1010.38
2022-11-27T08:04:02.398Z,1010.40
2022-11-27T08:05:02.431Z,1010.37
2022-11-27T08:06:02.341Z,1010.31
2022-11-27T08:07:02.325Z,1010.30
2022-11-27T08:08:02.364Z,1010.28
2022-11-27T08:09:02.282Z,1010.21
2022-11-27T08:10:02.318Z,1010.15
2022-11-27T08:11:02.238Z,1010.16
2022-11-27T08:12:02.226Z,1010.17
2022-11-27T08:13:02.195Z,1010.15
2022-11-27T08:14:02.179Z,1010.15
2022-11-27T08:15:02.157Z,1010.12
2022-11-27T08:16:02.166Z,1010.15
2022-11-27T08:17:02.119Z,1010.14
2022-11-27T08:18:02.099Z,1010.17
2022-11-27T08:19:07.959Z,1010.08
2022-11-27T08:20:02.136Z,1010.12
2022-11-27T08:21:02.047Z,1010.06
2022-11-27T08:22:02.065Z,1010.03
2022-11-27T08:23:03.252Z,1010.00
2022-11-27T08:24:01.978Z,1010.02
2022-11-27T08:25:01.988Z,1010.01
2022-11-27T08:26:01.940Z,1009.96
2022-11-27T08:27:01.917Z,1009.96
2022-11-27T08:28:01.904Z,1009.95
2022-11-27T08:29:01.879Z,1009.91
2022-11-27T08:30:01.883Z,1009.93
2022-11-27T08:31:01.836Z,1009.92
2022-11-27T08:32:01.903Z,1009.93
2022-11-27T08:33:01.798Z,1009.94
2022-11-27T08:34:01.777Z,1009.88
2022-11-27T08:35:01.790Z,1009.88
2022-11-27T08:36:01.830Z,1009.94
2022-11-27T08:37:01.782Z,1009.91
2022-11-27T08:38:01.699Z,1009.90
2022-11-27T08:39:01.680Z,1009.87
2022-11-27T08:40:01.659Z,1009.88
2022-11-27T08:41:01.636Z,1009.91
2022-11-27T08:42:01.626Z,1009.90
2022-11-27T08:43:01.713Z,1009.89
2022-11-27T08:44:04.510Z,1009.91
2022-11-27T08:45:01.559Z,1009.95
2022-11-27T08:46:01.635Z,1009.95
2022-11-27T08:47:01.552Z,1009.95
2022-11-27T08:48:01.619Z,1009.93
2022-11-27T08:49:01.479Z,1009.95
2022-11-27T08:50:01.492Z,1009.94
2022-11-27T08:51:01.442Z,1009.88
2022-11-27T08:52:01.525Z,1009.88
2022-11-27T08:53:01.403Z,1009.87
2022-11-27T08:54:01.382Z,1009.85
2022-11-27T08:55:01.367Z,1009.86
2022-11-27T08:56:01.342Z,1009.81
2022-11-27T08:57:01.329Z,1009.79
2022-11-27T08:58:01.315Z,1009.76
2022-11-27T08:59:01.291Z,1009.74
2022-11-27T09:00:01.269Z,1009.72
2022-11-27T09:01:01.339Z,1009.72
2022-11-27T09:02:01.234Z,1009.71
2022-11-27T09:03:01.206Z,1009.72
2022-11-27T09:04:01.269Z,1009.68
2022-11-27T09:05:01.186Z,1009.68
2022-11-27T09:06:01.150Z,1009.67
2022-11-27T09:07:01.128Z,1009.65
2022-11-27T09:08:01.265Z,1009.68
2022-11-27T09:09:01.098Z,1009.64
2022-11-27T09:10:01.075Z,1009.61
2022-11-27T09:11:01.049Z,1009.58
2022-11-27T09:12:01.103Z,1009.57
2022-11-27T09:13:01.010Z,1009.58
2022-11-27T09:14:01.002Z,1009.64
2022-11-27T09:15:00.976Z,1009.63
2022-11-27T09:16:00.976Z,1009.68
2022-11-27T09:17:01.014Z,1009.67
2022-11-27T09:18:00.921Z,1009.64
2022-11-27T09:19:00.894Z,1009.66
2022-11-27T09:20:00.944Z,1009.68
2022-11-27T09:21:00.887Z,1009.62
2022-11-27T09:22:00.843Z,1009.57
2022-11-27T09:23:00.830Z,1009.59
2022-11-27T09:24:00.879Z,1009.54
2022-11-27T09:25:00.780Z,1009.47
2022-11-27T09:26:00.782Z,1009.49
2022-11-27T09:27:00.770Z,1009.46
2022-11-27T09:28:00.732Z,1009.41
2022-11-27T09:29:00.708Z,1009.40
2022-11-27T09:30:00.697Z,1009.39
2022-11-27T09:31:00.679Z,1009.40
2022-11-27T09:32:00.702Z,1009.39
2022-11-27T09:33:00.630Z,1009.37
2022-11-27T09:34:00.620Z,1009.34
2022-11-27T09:35:00.657Z,1009.36
2022-11-27T09:36:00.579Z,1009.36
2022-11-27T09:37:00.567Z,1009.36
2022-11-27T09:38:00.543Z,1009.34
2022-11-27T09:39:00.549Z,1009.35
2022-11-27T09:40:00.581Z,1009.33
2022-11-27T09:41:03.067Z,1009.33
2022-11-27T09:42:00.489Z,1009.36
2022-11-27T09:43:00.444Z,1009.35
2022-11-27T09:44:00.482Z,1009.34
2022-11-27T09:45:00.398Z,1009.36
2022-11-27T09:46:00.481Z,1009.31
2022-11-27T09:47:00.366Z,1009.26
2022-11-27T09:48:00.345Z,1009.26
2022-11-27T09:49:00.327Z,1009.21
2022-11-27T09:50:00.336Z,1009.19
2022-11-27T09:51:00.318Z,1009.21
2022-11-27T09:52:00.270Z,1009.21
2022-11-27T09:53:00.252Z,1009.25
2022-11-27T09:54:00.235Z,1009.23
2022-11-27T09:55:00.221Z,1009.23
2022-11-27T09:56:00.284Z,1009.24
2022-11-27T09:57:00.210Z,1009.22
2022-11-27T09:58:00.181Z,1009.18
2022-11-27T09:59:00.136Z,1009.23
2022-11-27T10:00:00.166Z,1009.17
2022-11-27T10:01:00.100Z,1009.17
2022-11-27T10:02:00.269Z,1009.21
2022-11-27T10:03:00.266Z,1009.15
2022-11-27T10:04:00.099Z,1009.17
2022-11-27T10:05:15.848Z,1009.13
2022-11-27T10:06:00.042Z,1009.14
2022-11-27T10:06:59.991Z,1009.14
2022-11-27T10:08:06.051Z,1009.11
2022-11-27T10:08:59.948Z,1009.10
2022-11-27T10:09:59.936Z,1009.09
2022-11-27T10:10:59.962Z,1009.07
2022-11-27T10:11:59.976Z,1009.10
2022-11-27T10:12:59.888Z,1009.09
2022-11-27T10:13:59.861Z,1009.06
2022-11-27T10:14:59.857Z,1009.05
2022-11-27T10:15:59.829Z,1009.10
2022-11-27T10:16:59.928Z,1009.04
2022-11-27T10:17:59.788Z,1009.09
2022-11-27T10:18:59.782Z,1008.99
2022-11-27T10:19:59.785Z,1009.03
2022-11-27T10:20:59.729Z,1009.01
2022-11-27T10:21:59.713Z,1009.02
2022-11-27T10:22:59.741Z,1009.01
2022-11-27T10:23:59.689Z,1009.00
2022-11-27T10:24:59.662Z,1008.98
2022-11-27T10:25:59.640Z,1008.97
2022-11-27T10:26:59.627Z,1008.96
2022-11-27T10:27:59.685Z,1008.94
2022-11-27T10:28:59.657Z,1008.98
2022-11-27T10:29:59.567Z,1008.95
2022-11-27T10:30:59.550Z,1008.93
2022-11-27T10:31:59.616Z,1008.95
2022-11-27T10:32:59.587Z,1008.92
2022-11-27T10:33:59.532Z,1008.91
2022-11-27T10:34:59.474Z,1008.94
2022-11-27T10:35:59.487Z,1008.90
2022-11-27T10:36:59.448Z,1008.89
2022-11-27T10:38:03.679Z,1008.87
2022-11-27T10:38:59.430Z,1008.90
2022-11-27T10:39:59.387Z,1008.90
2022-11-27T10:40:59.369Z,1008.87
2022-11-27T10:41:59.351Z,1008.92
2022-11-27T10:42:59.336Z,1008.87
2022-11-27T10:44:01.699Z,1008.87
2022-11-27T10:44:59.295Z,1008.83
2022-11-27T10:45:59.325Z,1008.77
2022-11-27T10:46:59.254Z,1008.80
2022-11-27T10:47:59.264Z,1008.77
2022-11-27T10:48:59.220Z,1008.76
2022-11-27T10:49:59.206Z,1008.77
2022-11-27T10:50:59.211Z,1008.82
2022-11-27T10:51:59.166Z,1008.82
2022-11-27T10:52:59.149Z,1008.76
2022-11-27T10:53:59.135Z,1008.74
2022-11-27T10:54:59.133Z,1008.75
2022-11-27T10:55:59.124Z,1008.77
2022-11-27T10:56:59.133Z,1008.73
2022-11-27T10:57:59.088Z,1008.68
2022-11-27T10:58:59.052Z,1008.63
2022-11-27T10:59:59.115Z,1008.67
2022-11-27T11:00:59.043Z,1008.62
2022-11-27T11:01:59.050Z,1008.65
2022-11-27T11:02:58.974Z,1008.64
2022-11-27T11:03:58.958Z,1008.63
2022-11-27T11:05:30.024Z,1008.56
2022-11-27T11:06:23.948Z,1008.60
2022-11-27T11:06:58.926Z,1008.59
2022-11-27T11:07:58.953Z,1008.57
2022-11-27T11:09:01.450Z,1008.57
2022-11-27T11:09:58.851Z,1008.55
2022-11-27T11:10:58.837Z,1008.56
2022-11-27T11:11:58.812Z,1008.55
2022-11-27T11:12:58.856Z,1008.52
2022-11-27T11:13:58.781Z,1008.52
2022-11-27T11:14:58.758Z,1008.52
2022-11-27T11:15:58.845Z,1008.50
2022-11-27T11:16:58.773Z,1008.49
2022-11-27T11:17:58.815Z,1008.47
2022-11-27T11:18:58.702Z,1008.45
2022-11-27T11:19:58.689Z,1008.47
2022-11-27T11:20:58.655Z,1008.42
2022-11-27T11:21:58.635Z,1008.47
2022-11-27T11:22:58.627Z,1008.41
2022-11-27T11:23:58.665Z,1008.40
2022-11-27T11:24:58.583Z,1008.38
2022-11-27T11:25:58.567Z,1008.34
2022-11-27T11:26:58.547Z,1008.36
2022-11-27T11:27:58.532Z,1008.30
2022-11-27T11:28:58.512Z,1008.28
2022-11-27T11:29:58.524Z,1008.30
2022-11-27T11:30:58.480Z,1008.29
2022-11-27T11:31:58.556Z,1008.30
2022-11-27T11:32:58.450Z,1008.30
2022-11-27T11:33:58.426Z,1008.29
2022-11-27T11:35:01.198Z,1008.25
2022-11-27T11:35:58.391Z,1008.22
2022-11-27T11:36:58.376Z,1008.25
2022-11-27T11:37:58.360Z,1008.19
2022-11-27T11:38:58.340Z,1008.21
2022-11-27T11:39:58.318Z,1008.17
2022-11-27T11:40:58.337Z,1008.18
2022-11-27T11:41:58.287Z,1008.16
2022-11-27T11:42:58.279Z,1008.11
2022-11-27T11:43:58.308Z,1008.13
2022-11-27T11:44:58.235Z,1008.10
2022-11-27T11:45:58.261Z,1008.10
2022-11-27T11:46:58.199Z,1008.04
2022-11-27T11:47:58.264Z,1008.05
2022-11-27T11:48:58.168Z,1008.06
2022-11-27T11:49:58.178Z,1008.01
2022-11-27T11:50:58.128Z,1008.02
2022-11-27T11:51:58.123Z,1008.01
2022-11-27T11:52:58.095Z,1007.99
2022-11-27T11:53:58.074Z,1007.98
2022-11-27T11:54:58.065Z,1007.94
2022-11-27T11:55:58.040Z,1007.95
2022-11-27T11:56:58.029Z,1007.97
2022-11-27T11:57:58.010Z,1007.93
2022-11-27T11:58:57.996Z,1007.93
2022-11-27T11:59:57.967Z,1007.93
2022-11-27T12:01:25.360Z,1007.90
2022-11-27T12:01:58.042Z,1007.86
2022-11-27T12:02:57.919Z,1007.86
2022-11-27T12:03:58.036Z,1007.85
2022-11-27T12:04:57.948Z,1007.85